< < Back
Terminal Aerodrome Forecast


Current Version              Previous Versions:   1  2  3  4  5  6  7  8  9  

Terminal Aerodrome Forecast

963
FTAK31 PAJN 051700
TAFAHN
TAF
PAHN 051737Z 0518/0618 30008KT P6SM BKN150
     FM052000 13007KT P6SM BKN150
     FM060300 09004KT P6SM SCT150
     FM061200 30007KT P6SM SCT200
      AMD LTD TO CLD VIS AND WIND=

Latest METAR

155
SAUS70 KWBC 060300
MTRAHN
METAR KAHN 060251Z AUTO 25003KT 10SM CLR 23/19 A3012 RMK AO2 SLP191
T02330194 53009


USA.gov is the U.S. government's official web portal to all federal, state and local government web resources and services.